sensor_id;sensor_type;location;lat;lon;timestamp;P1;durP1;ratioP1;P2;durP2;ratioP2
16845;SDS011;8539;53.188;8.696;2023-03-07T00:01:03;62.95;;;30.73;;
16845;SDS011;8539;53.188;8.696;2023-03-07T00:03:31;56.60;;;30.08;;
16845;SDS011;8539;53.188;8.696;2023-03-07T00:05:59;55.05;;;29.95;;
16845;SDS011;8539;53.188;8.696;2023-03-07T00:08:26;56.47;;;31.25;;
16845;SDS011;8539;53.188;8.696;2023-03-07T00:10:52;53.95;;;29.58;;
16845;SDS011;8539;53.188;8.696;2023-03-07T00:13:18;52.58;;;29.98;;
16845;SDS011;8539;53.188;8.696;2023-03-07T00:15:44;59.83;;;32.08;;
16845;SDS011;8539;53.188;8.696;2023-03-07T00:18:10;58.60;;;29.55;;
16845;SDS011;8539;53.188;8.696;2023-03-07T00:20:36;55.47;;;28.35;;
16845;SDS011;8539;53.188;8.696;2023-03-07T00:23:03;54.90;;;29.17;;
16845;SDS011;8539;53.188;8.696;2023-03-07T00:25:29;54.10;;;30.13;;
16845;SDS011;8539;53.188;8.696;2023-03-07T00:27:55;53.00;;;27.45;;
16845;SDS011;8539;53.188;8.696;2023-03-07T00:30:21;51.90;;;29.52;;
16845;SDS011;8539;53.188;8.696;2023-03-07T00:32:47;52.47;;;29.10;;
16845;SDS011;8539;53.188;8.696;2023-03-07T00:35:14;53.97;;;28.27;;
16845;SDS011;8539;53.188;8.696;2023-03-07T00:37:40;49.15;;;26.67;;
16845;SDS011;8539;53.188;8.696;2023-03-07T00:40:06;54.58;;;26.98;;
16845;SDS011;8539;53.188;8.696;2023-03-07T00:42:33;45.70;;;24.60;;
16845;SDS011;8539;53.188;8.696;2023-03-07T00:44:59;43.72;;;24.73;;
16845;SDS011;8539;53.188;8.696;2023-03-07T00:47:25;45.88;;;26.25;;
16845;SDS011;8539;53.188;8.696;2023-03-07T00:49:51;50.30;;;26.13;;
16845;SDS011;8539;53.188;8.696;2023-03-07T00:52:17;41.22;;;24.40;;
16845;SDS011;8539;53.188;8.696;2023-03-07T00:54:43;40.00;;;23.10;;
16845;SDS011;8539;53.188;8.696;2023-03-07T00:57:10;45.88;;;24.15;;
16845;SDS011;8539;53.188;8.696;2023-03-07T00:59:36;42.00;;;24.17;;
16845;SDS011;8539;53.188;8.696;2023-03-07T01:02:02;44.38;;;23.83;;
16845;SDS011;8539;53.188;8.696;2023-03-07T01:04:28;44.65;;;23.42;;
16845;SDS011;8539;53.188;8.696;2023-03-07T01:06:54;41.67;;;22.38;;
16845;SDS011;8539;53.188;8.696;2023-03-07T01:09:20;34.13;;;20.60;;
16845;SDS011;8539;53.188;8.696;2023-03-07T01:11:46;39.55;;;23.08;;
16845;SDS011;8539;53.188;8.696;2023-03-07T01:14:14;34.17;;;22.13;;
16845;SDS011;8539;53.188;8.696;2023-03-07T01:16:40;36.75;;;21.50;;
16845;SDS011;8539;53.188;8.696;2023-03-07T01:19:06;40.83;;;21.70;;
16845;SDS011;8539;53.188;8.696;2023-03-07T01:21:37;37.65;;;20.80;;
16845;SDS011;8539;53.188;8.696;2023-03-07T01:24:05;35.60;;;19.95;;
16845;SDS011;8539;53.188;8.696;2023-03-07T01:26:32;34.58;;;18.83;;
16845;SDS011;8539;53.188;8.696;2023-03-07T01:29:00;36.75;;;20.80;;
16845;SDS011;8539;53.188;8.696;2023-03-07T01:31:28;32.35;;;20.05;;
16845;SDS011;8539;53.188;8.696;2023-03-07T01:33:58;33.90;;;21.08;;
16845;SDS011;8539;53.188;8.696;2023-03-07T01:36:27;34.70;;;19.65;;
16845;SDS011;8539;53.188;8.696;2023-03-07T01:38:56;35.65;;;19.50;;
16845;SDS011;8539;53.188;8.696;2023-03-07T01:41:27;32.70;;;19.38;;
16845;SDS011;8539;53.188;8.696;2023-03-07T01:44:01;37.50;;;20.17;;
16845;SDS011;8539;53.188;8.696;2023-03-07T01:49:03;35.22;;;20.38;;
16845;SDS011;8539;53.188;8.696;2023-03-07T01:51:34;32.97;;;19.10;;
16845;SDS011;8539;53.188;8.696;2023-03-07T01:54:02;26.80;;;16.38;;
16845;SDS011;8539;53.188;8.696;2023-03-07T01:56:30;32.88;;;18.27;;
16845;SDS011;8539;53.188;8.696;2023-03-07T01:58:57;32.22;;;16.95;;
16845;SDS011;8539;53.188;8.696;2023-03-07T02:01:23;21.33;;;14.20;;
16845;SDS011;8539;53.188;8.696;2023-03-07T02:06:23;22.77;;;14.73;;
16845;SDS011;8539;53.188;8.696;2023-03-07T02:08:52;24.92;;;14.93;;
16845;SDS011;8539;53.188;8.696;2023-03-07T02:11:20;23.15;;;13.38;;
16845;SDS011;8539;53.188;8.696;2023-03-07T02:13:46;23.42;;;13.90;;
16845;SDS011;8539;53.188;8.696;2023-03-07T02:16:12;23.05;;;13.55;;
16845;SDS011;8539;53.188;8.696;2023-03-07T02:18:43;18.27;;;11.52;;
16845;SDS011;8539;53.188;8.696;2023-03-07T02:24:18;17.80;;;11.75;;
16845;SDS011;8539;53.188;8.696;2023-03-07T02:26:56;23.70;;;11.48;;
16845;SDS011;8539;53.188;8.696;2023-03-07T02:29:23;18.70;;;11.05;;
16845;SDS011;8539;53.188;8.696;2023-03-07T02:31:49;18.42;;;10.13;;
16845;SDS011;8539;53.188;8.696;2023-03-07T02:34:16;16.67;;;10.77;;
16845;SDS011;8539;53.188;8.696;2023-03-07T02:36:45;15.82;;;9.77;;
16845;SDS011;8539;53.188;8.696;2023-03-07T02:39:14;15.05;;;9.52;;
16845;SDS011;8539;53.188;8.696;2023-03-07T02:41:41;14.88;;;9.20;;
16845;SDS011;8539;53.188;8.696;2023-03-07T02:44:07;13.00;;;8.18;;
16845;SDS011;8539;53.188;8.696;2023-03-07T02:46:33;17.20;;;9.35;;
16845;SDS011;8539;53.188;8.696;2023-03-07T02:48:59;18.00;;;9.25;;
16845;SDS011;8539;53.188;8.696;2023-03-07T02:51:25;15.00;;;8.38;;
16845;SDS011;8539;53.188;8.696;2023-03-07T02:53:51;15.30;;;8.65;;
16845;SDS011;8539;53.188;8.696;2023-03-07T02:56:18;16.00;;;8.60;;
16845;SDS011;8539;53.188;8.696;2023-03-07T02:58:44;14.52;;;8.50;;
16845;SDS011;8539;53.188;8.696;2023-03-07T03:01:10;17.33;;;9.13;;
16845;SDS011;8539;53.188;8.696;2023-03-07T03:03:36;12.82;;;7.78;;
16845;SDS011;8539;53.188;8.696;2023-03-07T03:06:02;13.90;;;8.82;;
16845;SDS011;8539;53.188;8.696;2023-03-07T03:08:28;13.32;;;6.82;;
16845;SDS011;8539;53.188;8.696;2023-03-07T03:10:55;12.45;;;6.75;;
16845;SDS011;8539;53.188;8.696;2023-03-07T03:13:21;14.90;;;8.38;;
16845;SDS011;8539;53.188;8.696;2023-03-07T03:15:47;9.27;;;6.13;;
16845;SDS011;8539;53.188;8.696;2023-03-07T03:18:13;10.38;;;5.80;;
16845;SDS011;8539;53.188;8.696;2023-03-07T03:20:40;10.70;;;6.00;;
16845;SDS011;8539;53.188;8.696;2023-03-07T03:23:07;10.80;;;5.47;;
16845;SDS011;8539;53.188;8.696;2023-03-07T03:25:33;10.80;;;5.75;;
16845;SDS011;8539;53.188;8.696;2023-03-07T03:27:59;9.65;;;6.28;;
16845;SDS011;8539;53.188;8.696;2023-03-07T03:30:24;6.72;;;4.32;;
16845;SDS011;8539;53.188;8.696;2023-03-07T03:32:52;9.63;;;4.20;;
16845;SDS011;8539;53.188;8.696;2023-03-07T03:35:18;9.85;;;4.70;;
16845;SDS011;8539;53.188;8.696;2023-03-07T03:37:44;8.90;;;4.60;;
16845;SDS011;8539;53.188;8.696;2023-03-07T03:40:10;7.28;;;4.38;;
16845;SDS011;8539;53.188;8.696;2023-03-07T03:42:42;5.32;;;3.58;;
16845;SDS011;8539;53.188;8.696;2023-03-07T03:45:09;7.18;;;3.97;;
16845;SDS011;8539;53.188;8.696;2023-03-07T03:47:36;9.00;;;4.13;;
16845;SDS011;8539;53.188;8.696;2023-03-07T03:50:03;9.77;;;3.22;;
16845;SDS011;8539;53.188;8.696;2023-03-07T03:52:29;8.13;;;3.28;;
16845;SDS011;8539;53.188;8.696;2023-03-07T03:54:55;8.00;;;3.25;;
16845;SDS011;8539;53.188;8.696;2023-03-07T03:57:21;8.00;;;3.53;;
16845;SDS011;8539;53.188;8.696;2023-03-07T03:59:48;11.48;;;3.90;;
16845;SDS011;8539;53.188;8.696;2023-03-07T04:02:15;7.15;;;3.03;;
16845;SDS011;8539;53.188;8.696;2023-03-07T04:04:42;10.35;;;3.30;;
16845;SDS011;8539;53.188;8.696;2023-03-07T04:07:08;11.90;;;2.97;;
16845;SDS011;8539;53.188;8.696;2023-03-07T04:09:34;7.15;;;3.17;;
16845;SDS011;8539;53.188;8.696;2023-03-07T04:12:00;4.22;;;2.78;;
16845;SDS011;8539;53.188;8.696;2023-03-07T04:14:26;6.47;;;2.97;;
16845;SDS011;8539;53.188;8.696;2023-03-07T04:16:52;4.50;;;2.65;;
16845;SDS011;8539;53.188;8.696;2023-03-07T04:19:18;5.55;;;3.10;;
16845;SDS011;8539;53.188;8.696;2023-03-07T04:21:44;4.63;;;2.17;;
16845;SDS011;8539;53.188;8.696;2023-03-07T04:24:10;9.32;;;2.90;;
16845;SDS011;8539;53.188;8.696;2023-03-07T04:26:36;10.55;;;3.53;;
16845;SDS011;8539;53.188;8.696;2023-03-07T04:29:02;4.63;;;2.25;;
16845;SDS011;8539;53.188;8.696;2023-03-07T04:31:34;12.52;;;3.08;;
16845;SDS011;8539;53.188;8.696;2023-03-07T04:34:00;4.97;;;2.88;;
16845;SDS011;8539;53.188;8.696;2023-03-07T04:36:26;9.63;;;2.47;;
16845;SDS011;8539;53.188;8.696;2023-03-07T04:38:52;10.10;;;2.28;;
16845;SDS011;8539;53.188;8.696;2023-03-07T04:41:20;14.27;;;2.70;;
16845;SDS011;8539;53.188;8.696;2023-03-07T04:43:47;5.82;;;2.40;;
16845;SDS011;8539;53.188;8.696;2023-03-07T04:46:14;6.75;;;2.17;;
16845;SDS011;8539;53.188;8.696;2023-03-07T04:48:41;10.65;;;3.08;;
16845;SDS011;8539;53.188;8.696;2023-03-07T04:51:07;8.82;;;2.50;;
16845;SDS011;8539;53.188;8.696;2023-03-07T04:53:34;19.10;;;3.45;;
16845;SDS011;8539;53.188;8.696;2023-03-07T04:56:01;14.00;;;2.65;;
16845;SDS011;8539;53.188;8.696;2023-03-07T04:58:29;8.93;;;2.08;;
16845;SDS011;8539;53.188;8.696;2023-03-07T05:00:56;8.13;;;3.03;;
16845;SDS011;8539;53.188;8.696;2023-03-07T05:03:23;10.98;;;1.85;;
16845;SDS011;8539;53.188;8.696;2023-03-07T05:05:50;13.20;;;2.42;;
16845;SDS011;8539;53.188;8.696;2023-03-07T05:08:17;6.65;;;1.92;;
16845;SDS011;8539;53.188;8.696;2023-03-07T05:10:44;7.65;;;2.47;;
16845;SDS011;8539;53.188;8.696;2023-03-07T05:13:10;6.32;;;2.13;;
16845;SDS011;8539;53.188;8.696;2023-03-07T05:15:36;8.82;;;1.88;;
16845;SDS011;8539;53.188;8.696;2023-03-07T05:18:02;8.20;;;2.30;;
16845;SDS011;8539;53.188;8.696;2023-03-07T05:20:28;3.65;;;2.13;;
16845;SDS011;8539;53.188;8.696;2023-03-07T05:22:55;6.30;;;2.15;;
16845;SDS011;8539;53.188;8.696;2023-03-07T05:25:21;6.53;;;2.30;;
16845;SDS011;8539;53.188;8.696;2023-03-07T05:27:48;6.15;;;2.28;;
16845;SDS011;8539;53.188;8.696;2023-03-07T05:30:14;9.63;;;1.92;;
16845;SDS011;8539;53.188;8.696;2023-03-07T05:32:40;8.10;;;1.98;;
16845;SDS011;8539;53.188;8.696;2023-03-07T05:35:07;7.95;;;2.35;;
16845;SDS011;8539;53.188;8.696;2023-03-07T05:37:35;6.57;;;1.80;;
16845;SDS011;8539;53.188;8.696;2023-03-07T05:40:01;7.13;;;1.98;;
16845;SDS011;8539;53.188;8.696;2023-03-07T05:42:31;8.63;;;2.15;;
16845;SDS011;8539;53.188;8.696;2023-03-07T05:44:57;14.90;;;2.10;;
16845;SDS011;8539;53.188;8.696;2023-03-07T05:47:23;8.13;;;2.15;;
16845;SDS011;8539;53.188;8.696;2023-03-07T05:49:49;10.30;;;4.00;;
16845;SDS011;8539;53.188;8.696;2023-03-07T05:52:15;9.77;;;1.60;;
16845;SDS011;8539;53.188;8.696;2023-03-07T05:54:41;9.02;;;1.70;;
16845;SDS011;8539;53.188;8.696;2023-03-07T05:57:07;5.65;;;1.63;;
16845;SDS011;8539;53.188;8.696;2023-03-07T05:59:33;6.85;;;2.15;;
16845;SDS011;8539;53.188;8.696;2023-03-07T06:01:59;3.70;;;1.33;;
16845;SDS011;8539;53.188;8.696;2023-03-07T06:04:25;5.53;;;1.30;;
16845;SDS011;8539;53.188;8.696;2023-03-07T06:06:51;6.65;;;1.92;;
16845;SDS011;8539;53.188;8.696;2023-03-07T06:09:17;4.78;;;1.48;;
16845;SDS011;8539;53.188;8.696;2023-03-07T06:11:44;7.45;;;1.80;;
16845;SDS011;8539;53.188;8.696;2023-03-07T06:14:10;8.73;;;1.95;;
16845;SDS011;8539;53.188;8.696;2023-03-07T06:16:36;11.98;;;2.72;;
16845;SDS011;8539;53.188;8.696;2023-03-07T06:19:02;11.13;;;1.80;;
16845;SDS011;8539;53.188;8.696;2023-03-07T06:21:28;9.80;;;1.80;;
16845;SDS011;8539;53.188;8.696;2023-03-07T06:23:55;5.70;;;1.33;;
16845;SDS011;8539;53.188;8.696;2023-03-07T06:26:21;4.38;;;1.55;;
16845;SDS011;8539;53.188;8.696;2023-03-07T06:28:47;8.73;;;1.63;;
16845;SDS011;8539;53.188;8.696;2023-03-07T06:31:14;2.60;;;1.17;;
16845;SDS011;8539;53.188;8.696;2023-03-07T06:33:42;6.00;;;1.55;;
16845;SDS011;8539;53.188;8.696;2023-03-07T06:36:12;8.52;;;1.77;;
16845;SDS011;8539;53.188;8.696;2023-03-07T06:38:40;12.55;;;2.30;;
16845;SDS011;8539;53.188;8.696;2023-03-07T06:41:07;9.02;;;2.28;;
16845;SDS011;8539;53.188;8.696;2023-03-07T06:43:34;9.20;;;1.35;;
16845;SDS011;8539;53.188;8.696;2023-03-07T06:46:00;21.48;;;4.90;;
16845;SDS011;8539;53.188;8.696;2023-03-07T06:48:26;8.90;;;2.28;;
16845;SDS011;8539;53.188;8.696;2023-03-07T06:50:52;14.43;;;2.17;;
16845;SDS011;8539;53.188;8.696;2023-03-07T06:53:18;6.60;;;1.42;;
16845;SDS011;8539;53.188;8.696;2023-03-07T06:55:48;10.43;;;1.45;;
16845;SDS011;8539;53.188;8.696;2023-03-07T06:58:15;9.65;;;1.55;;
16845;SDS011;8539;53.188;8.696;2023-03-07T07:00:42;6.22;;;2.28;;
16845;SDS011;8539;53.188;8.696;2023-03-07T07:03:15;10.65;;;1.55;;
16845;SDS011;8539;53.188;8.696;2023-03-07T07:05:43;5.25;;;1.40;;
16845;SDS011;8539;53.188;8.696;2023-03-07T07:08:10;10.43;;;2.30;;
16845;SDS011;8539;53.188;8.696;2023-03-07T07:10:36;13.45;;;2.88;;
16845;SDS011;8539;53.188;8.696;2023-03-07T07:13:03;8.40;;;1.50;;
16845;SDS011;8539;53.188;8.696;2023-03-07T07:15:30;12.27;;;1.70;;
16845;SDS011;8539;53.188;8.696;2023-03-07T07:17:57;7.05;;;2.55;;
16845;SDS011;8539;53.188;8.696;2023-03-07T07:20:23;10.00;;;1.70;;
16845;SDS011;8539;53.188;8.696;2023-03-07T07:22:50;6.00;;;1.60;;
16845;SDS011;8539;53.188;8.696;2023-03-07T07:25:16;6.10;;;2.25;;
16845;SDS011;8539;53.188;8.696;2023-03-07T07:27:42;9.50;;;1.73;;
16845;SDS011;8539;53.188;8.696;2023-03-07T07:30:08;6.82;;;2.30;;
16845;SDS011;8539;53.188;8.696;2023-03-07T07:32:35;6.40;;;1.63;;
16845;SDS011;8539;53.188;8.696;2023-03-07T07:35:01;13.98;;;3.05;;
16845;SDS011;8539;53.188;8.696;2023-03-07T07:37:27;10.23;;;1.50;;
16845;SDS011;8539;53.188;8.696;2023-03-07T07:39:53;7.18;;;1.92;;
16845;SDS011;8539;53.188;8.696;2023-03-07T07:42:19;5.50;;;1.05;;
16845;SDS011;8539;53.188;8.696;2023-03-07T07:44:45;12.27;;;1.95;;
16845;SDS011;8539;53.188;8.696;2023-03-07T07:47:12;5.32;;;1.65;;
16845;SDS011;8539;53.188;8.696;2023-03-07T07:49:38;8.57;;;1.52;;
16845;SDS011;8539;53.188;8.696;2023-03-07T07:52:05;22.52;;;4.00;;
16845;SDS011;8539;53.188;8.696;2023-03-07T07:54:31;7.55;;;1.63;;
16845;SDS011;8539;53.188;8.696;2023-03-07T07:56:57;6.22;;;1.52;;
16845;SDS011;8539;53.188;8.696;2023-03-07T07:59:23;8.20;;;1.73;;
16845;SDS011;8539;53.188;8.696;2023-03-07T08:01:49;7.28;;;1.75;;
16845;SDS011;8539;53.188;8.696;2023-03-07T08:04:15;9.15;;;1.88;;
16845;SDS011;8539;53.188;8.696;2023-03-07T08:06:41;7.35;;;1.38;;
16845;SDS011;8539;53.188;8.696;2023-03-07T08:09:09;7.13;;;2.05;;
16845;SDS011;8539;53.188;8.696;2023-03-07T08:11:35;18.75;;;4.15;;
16845;SDS011;8539;53.188;8.696;2023-03-07T08:14:01;7.07;;;1.70;;
16845;SDS011;8539;53.188;8.696;2023-03-07T08:16:29;8.70;;;3.30;;
16845;SDS011;8539;53.188;8.696;2023-03-07T08:18:55;12.35;;;2.92;;
16845;SDS011;8539;53.188;8.696;2023-03-07T08:21:23;8.55;;;1.55;;
16845;SDS011;8539;53.188;8.696;2023-03-07T08:23:50;6.03;;;1.35;;
16845;SDS011;8539;53.188;8.696;2023-03-07T08:26:17;10.02;;;1.85;;
16845;SDS011;8539;53.188;8.696;2023-03-07T08:28:44;7.07;;;1.45;;
16845;SDS011;8539;53.188;8.696;2023-03-07T08:31:12;6.35;;;1.95;;
16845;SDS011;8539;53.188;8.696;2023-03-07T08:33:48;9.38;;;1.90;;
16845;SDS011;8539;53.188;8.696;2023-03-07T08:36:14;11.07;;;2.10;;
16845;SDS011;8539;53.188;8.696;2023-03-07T08:38:41;9.55;;;2.38;;
16845;SDS011;8539;53.188;8.696;2023-03-07T08:41:07;17.52;;;2.67;;
16845;SDS011;8539;53.188;8.696;2023-03-07T08:43:35;9.43;;;1.77;;
16845;SDS011;8539;53.188;8.696;2023-03-07T08:46:02;15.07;;;1.98;;
16845;SDS011;8539;53.188;8.696;2023-03-07T08:48:29;6.13;;;2.17;;
16845;SDS011;8539;53.188;8.696;2023-03-07T08:50:55;9.68;;;1.67;;
16845;SDS011;8539;53.188;8.696;2023-03-07T08:53:21;4.65;;;1.40;;
16845;SDS011;8539;53.188;8.696;2023-03-07T08:55:48;7.07;;;1.85;;
16845;SDS011;8539;53.188;8.696;2023-03-07T08:58:14;6.47;;;1.73;;
16845;SDS011;8539;53.188;8.696;2023-03-07T09:00:40;10.30;;;1.60;;
16845;SDS011;8539;53.188;8.696;2023-03-07T09:03:06;7.22;;;1.23;;
16845;SDS011;8539;53.188;8.696;2023-03-07T09:05:35;6.90;;;1.23;;
16845;SDS011;8539;53.188;8.696;2023-03-07T09:08:03;11.30;;;2.78;;
16845;SDS011;8539;53.188;8.696;2023-03-07T09:10:31;6.65;;;1.55;;
16845;SDS011;8539;53.188;8.696;2023-03-07T09:12:57;9.23;;;1.33;;
16845;SDS011;8539;53.188;8.696;2023-03-07T09:15:23;5.72;;;1.48;;
16845;SDS011;8539;53.188;8.696;2023-03-07T09:17:50;4.25;;;1.52;;
16845;SDS011;8539;53.188;8.696;2023-03-07T09:20:16;4.10;;;1.20;;
16845;SDS011;8539;53.188;8.696;2023-03-07T09:22:43;4.57;;;1.35;;
16845;SDS011;8539;53.188;8.696;2023-03-07T09:25:11;8.32;;;1.42;;
16845;SDS011;8539;53.188;8.696;2023-03-07T09:27:37;5.18;;;1.27;;
16845;SDS011;8539;53.188;8.696;2023-03-07T09:30:04;5.00;;;1.50;;
16845;SDS011;8539;53.188;8.696;2023-03-07T09:32:31;6.15;;;1.75;;
16845;SDS011;8539;53.188;8.696;2023-03-07T09:34:58;5.88;;;1.40;;
16845;SDS011;8539;53.188;8.696;2023-03-07T09:37:24;5.80;;;1.55;;
16845;SDS011;8539;53.188;8.696;2023-03-07T09:39:50;11.63;;;2.58;;
16845;SDS011;8539;53.188;8.696;2023-03-07T09:42:22;4.45;;;1.17;;
16845;SDS011;8539;53.188;8.696;2023-03-07T09:44:59;7.43;;;1.15;;
16845;SDS011;8539;53.188;8.696;2023-03-07T09:50:15;6.80;;;2.30;;
16845;SDS011;8539;53.188;8.696;2023-03-07T09:52:47;8.43;;;1.13;;
16845;SDS011;8539;53.188;8.696;2023-03-07T09:55:16;5.05;;;1.30;;
16845;SDS011;8539;53.188;8.696;2023-03-07T09:57:53;5.07;;;1.30;;
16845;SDS011;8539;53.188;8.696;2023-03-07T10:00:22;4.28;;;1.30;;
16845;SDS011;8539;53.188;8.696;2023-03-07T10:05:58;5.10;;;1.88;;
16845;SDS011;8539;53.188;8.696;2023-03-07T10:08:36;7.05;;;1.52;;
16845;SDS011;8539;53.188;8.696;2023-03-07T10:27:24;6.63;;;2.03;;
16845;SDS011;8539;53.188;8.696;2023-03-07T10:29:54;8.45;;;1.55;;
16845;SDS011;8539;53.188;8.696;2023-03-07T10:32:33;4.25;;;1.63;;
16845;SDS011;8539;53.188;8.696;2023-03-07T10:40:17;7.28;;;1.65;;
16845;SDS011;8539;53.188;8.696;2023-03-07T10:42:51;8.13;;;1.80;;
16845;SDS011;8539;53.188;8.696;2023-03-07T10:45:19;4.40;;;1.55;;
16845;SDS011;8539;53.188;8.696;2023-03-07T10:47:46;6.18;;;2.17;;
16845;SDS011;8539;53.188;8.696;2023-03-07T10:50:18;6.63;;;1.10;;
16845;SDS011;8539;53.188;8.696;2023-03-07T10:52:54;9.45;;;1.25;;
16845;SDS011;8539;53.188;8.696;2023-03-07T10:55:36;7.97;;;1.60;;
16845;SDS011;8539;53.188;8.696;2023-03-07T11:03:51;7.82;;;2.00;;
16845;SDS011;8539;53.188;8.696;2023-03-07T11:07:09;7.53;;;1.90;;
16845;SDS011;8539;53.188;8.696;2023-03-07T11:11:55;5.90;;;1.40;;
16845;SDS011;8539;53.188;8.696;2023-03-07T11:14:46;6.57;;;1.42;;
16845;SDS011;8539;53.188;8.696;2023-03-07T11:17:40;10.57;;;2.97;;
16845;SDS011;8539;53.188;8.696;2023-03-07T11:20:22;6.53;;;1.85;;
16845;SDS011;8539;53.188;8.696;2023-03-07T11:23:10;10.23;;;1.52;;
16845;SDS011;8539;53.188;8.696;2023-03-07T11:25:53;11.10;;;1.55;;
16845;SDS011;8539;53.188;8.696;2023-03-07T11:36:14;11.63;;;1.60;;
16845;SDS011;8539;53.188;8.696;2023-03-07T11:41:36;7.90;;;1.95;;
16845;SDS011;8539;53.188;8.696;2023-03-07T11:49:36;12.80;;;1.63;;
16845;SDS011;8539;53.188;8.696;2023-03-07T12:00:16;9.68;;;2.70;;
16845;SDS011;8539;53.188;8.696;2023-03-07T12:14:31;8.43;;;1.77;;
16845;SDS011;8539;53.188;8.696;2023-03-07T12:22:22;4.93;;;1.73;;
16845;SDS011;8539;53.188;8.696;2023-03-07T12:30:15;5.85;;;1.50;;
16845;SDS011;8539;53.188;8.696;2023-03-07T12:32:47;9.15;;;1.70;;
16845;SDS011;8539;53.188;8.696;2023-03-07T12:35:22;6.65;;;1.25;;
16845;SDS011;8539;53.188;8.696;2023-03-07T12:40:55;8.70;;;3.47;;
16845;SDS011;8539;53.188;8.696;2023-03-07T12:43:29;5.00;;;1.13;;
16845;SDS011;8539;53.188;8.696;2023-03-07T12:46:40;6.28;;;1.63;;
16845;SDS011;8539;53.188;8.696;2023-03-07T12:51:59;7.22;;;1.42;;
16845;SDS011;8539;53.188;8.696;2023-03-07T12:54:29;5.30;;;1.25;;
16845;SDS011;8539;53.188;8.696;2023-03-07T12:57:02;6.38;;;1.23;;
16845;SDS011;8539;53.188;8.696;2023-03-07T12:59:34;5.75;;;1.08;;
16845;SDS011;8539;53.188;8.696;2023-03-07T13:02:23;6.30;;;1.88;;
16845;SDS011;8539;53.188;8.696;2023-03-07T13:04:53;3.83;;;1.75;;
16845;SDS011;8539;53.188;8.696;2023-03-07T13:07:31;4.43;;;1.60;;
16845;SDS011;8539;53.188;8.696;2023-03-07T13:09:59;5.05;;;1.45;;
16845;SDS011;8539;53.188;8.696;2023-03-07T13:12:33;4.28;;;1.00;;
16845;SDS011;8539;53.188;8.696;2023-03-07T13:15:05;7.22;;;1.20;;
16845;SDS011;8539;53.188;8.696;2023-03-07T13:27:48;9.50;;;2.30;;
16845;SDS011;8539;53.188;8.696;2023-03-07T13:30:22;4.07;;;1.42;;
16845;SDS011;8539;53.188;8.696;2023-03-07T13:32:55;2.25;;;0.90;;
16845;SDS011;8539;53.188;8.696;2023-03-07T13:45:47;4.68;;;1.60;;
16845;SDS011;8539;53.188;8.696;2023-03-07T13:53:21;7.95;;;1.25;;
16845;SDS011;8539;53.188;8.696;2023-03-07T13:58:57;9.45;;;1.77;;
16845;SDS011;8539;53.188;8.696;2023-03-07T14:01:40;5.85;;;1.35;;
16845;SDS011;8539;53.188;8.696;2023-03-07T14:07:20;3.17;;;1.10;;
16845;SDS011;8539;53.188;8.696;2023-03-07T14:09:58;7.63;;;1.23;;
16845;SDS011;8539;53.188;8.696;2023-03-07T14:18:24;5.80;;;1.10;;
16845;SDS011;8539;53.188;8.696;2023-03-07T14:26:49;7.15;;;0.98;;
16845;SDS011;8539;53.188;8.696;2023-03-07T14:29:25;7.38;;;1.00;;
16845;SDS011;8539;53.188;8.696;2023-03-07T14:31:54;3.75;;;0.70;;
16845;SDS011;8539;53.188;8.696;2023-03-07T14:34:32;2.08;;;0.60;;
16845;SDS011;8539;53.188;8.696;2023-03-07T14:37:06;3.65;;;0.95;;
16845;SDS011;8539;53.188;8.696;2023-03-07T14:50:48;7.65;;;1.52;;
16845;SDS011;8539;53.188;8.696;2023-03-07T14:53:16;3.47;;;0.85;;
16845;SDS011;8539;53.188;8.696;2023-03-07T14:55:51;5.10;;;0.80;;
16845;SDS011;8539;53.188;8.696;2023-03-07T14:58:20;5.88;;;0.82;;
16845;SDS011;8539;53.188;8.696;2023-03-07T15:01:04;3.42;;;1.63;;
16845;SDS011;8539;53.188;8.696;2023-03-07T15:03:35;2.88;;;0.90;;
16845;SDS011;8539;53.188;8.696;2023-03-07T15:06:18;3.30;;;0.65;;
16845;SDS011;8539;53.188;8.696;2023-03-07T15:08:46;2.38;;;1.00;;
16845;SDS011;8539;53.188;8.696;2023-03-07T15:16:35;2.25;;;0.77;;
16845;SDS011;8539;53.188;8.696;2023-03-07T15:19:10;3.03;;;0.52;;
16845;SDS011;8539;53.188;8.696;2023-03-07T15:21:45;1.42;;;0.70;;
16845;SDS011;8539;53.188;8.696;2023-03-07T15:24:18;3.55;;;1.35;;
16845;SDS011;8539;53.188;8.696;2023-03-07T15:26:50;5.72;;;1.48;;
16845;SDS011;8539;53.188;8.696;2023-03-07T15:29:23;4.90;;;0.93;;
16845;SDS011;8539;53.188;8.696;2023-03-07T15:31:58;3.60;;;1.02;;
16845;SDS011;8539;53.188;8.696;2023-03-07T15:34:35;4.32;;;1.17;;
16845;SDS011;8539;53.188;8.696;2023-03-07T15:37:22;1.58;;;0.60;;
16845;SDS011;8539;53.188;8.696;2023-03-07T15:40:22;3.83;;;1.02;;
16845;SDS011;8539;53.188;8.696;2023-03-07T15:42:51;6.60;;;1.50;;
16845;SDS011;8539;53.188;8.696;2023-03-07T15:45:33;7.25;;;1.20;;
16845;SDS011;8539;53.188;8.696;2023-03-07T15:48:07;7.00;;;1.27;;
16845;SDS011;8539;53.188;8.696;2023-03-07T15:50:35;3.58;;;1.02;;
16845;SDS011;8539;53.188;8.696;2023-03-07T15:53:06;3.33;;;1.10;;
16845;SDS011;8539;53.188;8.696;2023-03-07T15:55:34;1.48;;;0.63;;
16845;SDS011;8539;53.188;8.696;2023-03-07T15:58:03;6.70;;;1.77;;
16845;SDS011;8539;53.188;8.696;2023-03-07T16:00:39;5.50;;;1.20;;
16845;SDS011;8539;53.188;8.696;2023-03-07T16:05:51;4.18;;;0.95;;
16845;SDS011;8539;53.188;8.696;2023-03-07T16:08:18;2.05;;;0.73;;
16845;SDS011;8539;53.188;8.696;2023-03-07T16:10:47;4.35;;;1.30;;
16845;SDS011;8539;53.188;8.696;2023-03-07T16:13:30;3.90;;;0.85;;
16845;SDS011;8539;53.188;8.696;2023-03-07T16:16:01;4.72;;;0.88;;
16845;SDS011;8539;53.188;8.696;2023-03-07T16:18:28;2.15;;;0.70;;
16845;SDS011;8539;53.188;8.696;2023-03-07T16:20:56;8.32;;;1.00;;
16845;SDS011;8539;53.188;8.696;2023-03-07T16:23:22;9.75;;;2.22;;
16845;SDS011;8539;53.188;8.696;2023-03-07T16:25:48;6.15;;;2.10;;
16845;SDS011;8539;53.188;8.696;2023-03-07T16:28:14;6.47;;;1.00;;
16845;SDS011;8539;53.188;8.696;2023-03-07T16:30:42;1.90;;;0.50;;
16845;SDS011;8539;53.188;8.696;2023-03-07T16:33:10;2.45;;;0.73;;
16845;SDS011;8539;53.188;8.696;2023-03-07T16:35:38;4.45;;;0.95;;
16845;SDS011;8539;53.188;8.696;2023-03-07T16:38:04;3.30;;;1.20;;
16845;SDS011;8539;53.188;8.696;2023-03-07T16:40:31;7.95;;;0.93;;
16845;SDS011;8539;53.188;8.696;2023-03-07T16:42:58;3.92;;;0.88;;
16845;SDS011;8539;53.188;8.696;2023-03-07T16:45:28;2.90;;;0.98;;
16845;SDS011;8539;53.188;8.696;2023-03-07T16:47:56;1.27;;;0.65;;
16845;SDS011;8539;53.188;8.696;2023-03-07T16:50:25;1.38;;;0.88;;
16845;SDS011;8539;53.188;8.696;2023-03-07T16:52:53;6.20;;;1.67;;
16845;SDS011;8539;53.188;8.696;2023-03-07T16:55:19;0.90;;;0.38;;
16845;SDS011;8539;53.188;8.696;2023-03-07T16:57:47;3.13;;;0.80;;
16845;SDS011;8539;53.188;8.696;2023-03-07T17:00:16;4.10;;;0.80;;
16845;SDS011;8539;53.188;8.696;2023-03-07T17:02:45;1.65;;;0.75;;
16845;SDS011;8539;53.188;8.696;2023-03-07T17:05:16;2.33;;;0.68;;
16845;SDS011;8539;53.188;8.696;2023-03-07T17:07:54;4.10;;;0.80;;
16845;SDS011;8539;53.188;8.696;2023-03-07T17:10:22;1.48;;;0.82;;
16845;SDS011;8539;53.188;8.696;2023-03-07T17:12:50;4.82;;;1.13;;
16845;SDS011;8539;53.188;8.696;2023-03-07T17:15:20;7.05;;;2.70;;
16845;SDS011;8539;53.188;8.696;2023-03-07T17:17:50;7.93;;;1.80;;
16845;SDS011;8539;53.188;8.696;2023-03-07T17:20:18;6.63;;;1.77;;
16845;SDS011;8539;53.188;8.696;2023-03-07T17:22:47;5.45;;;1.80;;
16845;SDS011;8539;53.188;8.696;2023-03-07T17:25:15;1.55;;;0.90;;
16845;SDS011;8539;53.188;8.696;2023-03-07T17:27:43;3.42;;;1.77;;
16845;SDS011;8539;53.188;8.696;2023-03-07T17:30:20;5.40;;;1.40;;
16845;SDS011;8539;53.188;8.696;2023-03-07T17:32:51;5.78;;;1.00;;
16845;SDS011;8539;53.188;8.696;2023-03-07T17:35:17;2.20;;;0.85;;
16845;SDS011;8539;53.188;8.696;2023-03-07T17:37:43;2.63;;;1.52;;
16845;SDS011;8539;53.188;8.696;2023-03-07T17:40:13;5.63;;;0.85;;
16845;SDS011;8539;53.188;8.696;2023-03-07T17:42:40;10.35;;;0.73;;
16845;SDS011;8539;53.188;8.696;2023-03-07T17:45:07;2.15;;;0.73;;